Time;durP1;ratioP1;P1;durP2;ratioP2;P2;SDS_P1;SDS_P2;PMS_P1;PMS_P2;Temp;Humidity;BMP_temperature;BMP_pressure;BME280_temperature;BME280_humidity;BME280_pressure;Samples;Min_cycle;Max_cycle;Signal;HPM_P1;HPM_P2
2021/10/07 00:00:34;;;;;;;1.50;1.07;;;13.20;99.90;;;;;;5055180;28;20194;-56
2021/10/07 00:02:59;;;;;;;4.40;1.60;;;13.20;99.90;;;;;;5054799;28;20415;-57
2021/10/07 00:05:25;;;;;;;1.63;1.30;;;13.20;99.90;;;;;;5055139;28;20449;-52
2021/10/07 00:07:51;;;;;;;2.10;1.50;;;13.20;99.90;;;;;;5053720;28;20173;-56
2021/10/07 00:10:16;;;;;;;3.80;1.40;;;13.20;99.90;;;;;;5054878;28;20167;-57
2021/10/07 00:12:42;;;;;;;3.40;1.47;;;13.10;99.90;;;;;;5055005;28;20163;-56
2021/10/07 00:15:08;;;;;;;1.90;1.30;;;13.10;99.90;;;;;;5053780;28;20598;-57
2021/10/07 00:17:35;;;;;;;1.87;1.50;;;13.20;99.90;;;;;;5055082;28;20170;-57
2021/10/07 00:20:01;;;;;;;1.33;1.20;;;13.30;99.90;;;;;;5054349;28;20463;-55
2021/10/07 00:22:26;;;;;;;2.47;1.40;;;13.40;99.90;;;;;;5054521;28;20424;-54
2021/10/07 00:24:52;;;;;;;3.63;1.50;;;13.30;99.90;;;;;;5054422;28;20446;-57
2021/10/07 00:27:17;;;;;;;1.20;1.10;;;13.40;99.90;;;;;;5054778;28;20159;-57
2021/10/07 00:29:45;;;;;;;2.13;1.33;;;13.50;99.90;;;;;;5054959;28;20189;-55
2021/10/07 00:32:23;;;;;;;2.53;1.30;;;13.40;99.90;;;;;;5054903;28;20231;-58
2021/10/07 00:40:09;;;;;;;3.27;1.73;;;13.40;99.90;;;;;;5054792;28;20398;-56
2021/10/07 00:42:35;;;;;;;3.43;1.60;;;13.40;99.90;;;;;;5054378;28;20402;-57
2021/10/07 00:45:02;;;;;;;1.83;1.40;;;13.50;99.90;;;;;;5053988;28;20453;-51
2021/10/07 00:47:27;;;;;;;2.03;1.40;;;13.30;99.90;;;;;;5054279;28;20404;-55
2021/10/07 00:49:53;;;;;;;2.83;1.73;;;13.30;99.90;;;;;;5054372;28;20478;-54
2021/10/07 00:52:19;;;;;;;1.80;1.40;;;13.30;99.90;;;;;;5061556;28;20178;-52
2021/10/07 00:54:47;;;;;;;2.10;1.53;;;13.30;99.90;;;;;;5054165;28;20206;-56
2021/10/07 00:57:17;;;;;;;1.47;1.30;;;13.50;99.90;;;;;;5054390;28;20399;-58
2021/10/07 00:59:44;;;;;;;1.73;1.40;;;13.60;99.90;;;;;;5054544;28;20755;-54
2021/10/07 01:02:10;;;;;;;3.43;1.73;;;13.60;99.90;;;;;;5054175;28;20399;-54
2021/10/07 01:04:36;;;;;;;1.10;1.00;;;13.40;99.90;;;;;;5054021;28;20420;-53
2021/10/07 01:07:03;;;;;;;1.60;1.07;;;13.40;99.90;;;;;;5054390;28;20194;-53
2021/10/07 01:09:29;;;;;;;2.33;1.30;;;13.30;99.90;;;;;;5053491;28;20470;-53
2021/10/07 01:11:56;;;;;;;1.47;1.20;;;13.20;99.90;;;;;;5054048;28;20403;-58
2021/10/07 01:14:43;;;;;;;3.67;1.20;;;13.20;99.90;;;;;;5053824;28;20515;-54
2021/10/07 01:17:11;;;;;;;1.63;1.30;;;13.20;99.90;;;;;;5054344;28;20383;-56
2021/10/07 01:19:39;;;;;;;2.43;1.60;;;13.20;99.90;;;;;;5053612;28;20403;-52
2021/10/07 01:22:04;;;;;;;1.83;1.37;;;13.20;99.90;;;;;;5053410;28;20420;-56
2021/10/07 01:24:30;;;;;;;3.67;1.80;;;13.10;99.90;;;;;;5053175;28;20437;-53
2021/10/07 01:26:56;;;;;;;3.23;1.50;;;13.10;99.90;;;;;;5053510;28;20508;-52
2021/10/07 01:29:21;;;;;;;1.77;1.53;;;13.10;99.90;;;;;;5053660;28;20177;-51
2021/10/07 01:31:47;;;;;;;1.97;1.60;;;13.20;99.90;;;;;;5053739;28;20300;-57
2021/10/07 01:34:20;;;;;;;2.93;1.63;;;13.10;99.90;;;;;;5053888;28;20172;-52
2021/10/07 01:36:46;;;;;;;1.37;1.27;;;13.20;99.90;;;;;;5053814;28;20659;-58
2021/10/07 01:39:11;;;;;;;3.20;1.73;;;13.20;99.90;;;;;;5053027;28;20445;-58
2021/10/07 01:41:37;;;;;;;1.23;1.10;;;13.20;99.90;;;;;;5053502;28;20288;-58
2021/10/07 01:44:03;;;;;;;2.80;1.23;;;13.00;99.90;;;;;;5053449;28;20178;-57
2021/10/07 01:46:28;;;;;;;2.10;1.23;;;13.10;99.90;;;;;;5053260;28;20186;-52
2021/10/07 01:48:54;;;;;;;1.43;1.30;;;13.20;99.90;;;;;;5053727;28;20170;-52
2021/10/07 01:51:20;;;;;;;3.30;1.90;;;13.30;99.90;;;;;;5053305;28;20263;-53
2021/10/07 01:53:45;;;;;;;2.10;1.20;;;13.30;99.90;;;;;;5053182;28;20171;-53
2021/10/07 01:56:11;;;;;;;3.43;1.40;;;13.40;99.90;;;;;;5052964;28;20688;-54
2021/10/07 01:58:36;;;;;;;2.50;1.60;;;13.50;99.90;;;;;;5053756;28;20171;-58
2021/10/07 02:01:02;;;;;;;1.40;1.30;;;13.40;99.90;;;;;;5053387;28;20220;-56
2021/10/07 02:03:27;;;;;;;1.97;1.40;;;13.30;99.90;;;;;;5053143;28;20170;-57
2021/10/07 02:05:53;;;;;;;1.67;1.57;;;13.30;99.90;;;;;;5053096;28;20225;-57
2021/10/07 02:08:18;;;;;;;1.80;1.10;;;13.30;99.90;;;;;;5053312;28;20585;-53
2021/10/07 02:10:44;;;;;;;2.13;1.37;;;13.40;99.90;;;;;;5052726;28;20163;-56
2021/10/07 02:13:10;;;;;;;1.70;1.43;;;13.30;99.90;;;;;;5053088;28;20163;-55
2021/10/07 02:15:36;;;;;;;1.93;1.10;;;13.40;99.90;;;;;;5053099;28;20194;-57
2021/10/07 02:18:02;;;;;;;1.53;1.30;;;13.30;99.90;;;;;;5052872;28;20172;-56
2021/10/07 02:20:27;;;;;;;4.70;1.73;;;13.40;99.90;;;;;;5053066;28;20416;-55
2021/10/07 02:22:53;;;;;;;3.07;1.10;;;13.40;99.90;;;;;;5052566;28;20474;-56
2021/10/07 02:25:18;;;;;;;2.10;1.30;;;13.40;99.90;;;;;;5052491;28;20325;-51
2021/10/07 02:27:44;;;;;;;1.83;1.27;;;13.30;99.90;;;;;;5053463;28;20182;-54
2021/10/07 02:30:13;;;;;;;2.13;1.10;;;13.20;99.90;;;;;;5052929;28;20167;-53
2021/10/07 02:32:39;;;;;;;1.60;1.37;;;13.20;99.90;;;;;;5053233;28;20194;-57
2021/10/07 02:35:06;;;;;;;3.43;1.83;;;13.20;99.90;;;;;;5070144;22;21039;-60
2021/10/07 02:37:33;;;;;;;1.80;1.33;;;13.20;99.90;;;;;;5037038;28;20203;-57
2021/10/07 02:39:58;;;;;;;3.27;1.43;;;13.20;99.90;;;;;;5024602;28;20993;-57
2021/10/07 02:42:24;;;;;;;2.20;1.20;;;13.20;99.90;;;;;;5034385;28;20474;-57
2021/10/07 02:44:50;;;;;;;1.43;1.30;;;13.20;99.90;;;;;;5037044;28;20232;-57
2021/10/07 02:47:15;;;;;;;1.73;1.43;;;13.30;99.90;;;;;;5037104;28;20184;-57
2021/10/07 02:49:41;;;;;;;2.60;1.40;;;13.40;99.90;;;;;;5037265;28;20167;-56
2021/10/07 02:52:06;;;;;;;2.17;1.30;;;13.40;99.90;;;;;;5028185;28;20186;-51
2021/10/07 02:54:32;;;;;;;2.60;1.70;;;13.40;99.90;;;;;;5033387;28;20561;-56
2021/10/07 02:56:57;;;;;;;1.47;1.20;;;13.40;99.90;;;;;;5036997;28;20187;-56
2021/10/07 02:59:23;;;;;;;1.50;1.40;;;13.40;99.90;;;;;;5036975;28;20171;-55
2021/10/07 03:01:49;;;;;;;1.33;1.23;;;13.40;99.90;;;;;;5036918;28;20172;-55
2021/10/07 03:04:15;;;;;;;1.30;1.20;;;13.30;99.90;;;;;;5037268;28;20163;-57
2021/10/07 03:06:41;;;;;;;3.87;1.10;;;13.30;99.90;;;;;;5036656;28;20262;-55
2021/10/07 03:09:07;;;;;;;1.43;1.30;;;13.30;99.90;;;;;;5036566;28;20406;-56
2021/10/07 03:11:32;;;;;;;2.57;1.77;;;13.30;99.90;;;;;;5035612;28;20171;-54
2021/10/07 03:13:58;;;;;;;1.43;1.33;;;13.30;99.90;;;;;;5037273;28;20173;-57
2021/10/07 03:16:23;;;;;;;1.60;1.50;;;13.20;99.90;;;;;;5036747;28;20239;-56
2021/10/07 03:18:49;;;;;;;2.00;1.10;;;13.20;99.90;;;;;;5037036;28;20192;-57
2021/10/07 03:21:15;;;;;;;2.30;1.37;;;13.20;99.90;;;;;;5036436;28;20525;-54
2021/10/07 03:23:40;;;;;;;1.10;1.00;;;13.30;99.90;;;;;;5036531;28;20172;-56
2021/10/07 03:26:06;;;;;;;1.70;1.20;;;13.30;99.90;;;;;;5037488;28;20677;-55
2021/10/07 03:28:32;;;;;;;1.60;1.37;;;13.30;99.90;;;;;;5038558;28;20179;-54
2021/10/07 03:30:57;;;;;;;2.40;1.40;;;13.30;99.90;;;;;;5038462;28;20164;-55
2021/10/07 03:33:23;;;;;;;1.20;1.10;;;13.40;99.90;;;;;;5040454;28;20172;-54
2021/10/07 03:35:48;;;;;;;3.77;1.30;;;13.40;99.90;;;;;;5033091;28;20346;-53
2021/10/07 03:38:14;;;;;;;1.30;1.20;;;13.40;99.90;;;;;;5018441;28;20200;-56
2021/10/07 03:40:40;;;;;;;1.23;1.13;;;13.40;99.90;;;;;;5019409;28;20201;-51
2021/10/07 03:43:05;;;;;;;2.73;1.33;;;13.50;99.90;;;;;;5017061;28;20548;-58
2021/10/07 03:45:31;;;;;;;1.23;1.13;;;13.50;99.90;;;;;;5017796;28;20578;-54
2021/10/07 03:47:57;;;;;;;1.70;1.60;;;13.50;99.90;;;;;;5017680;28;20167;-53
2021/10/07 03:50:22;;;;;;;1.13;1.03;;;13.40;99.90;;;;;;5016244;28;20169;-53
2021/10/07 03:52:48;;;;;;;1.63;1.00;;;13.40;99.90;;;;;;5016274;28;20196;-55
2021/10/07 03:55:14;;;;;;;1.43;1.20;;;13.40;99.90;;;;;;5021824;28;20201;-56
2021/10/07 03:57:39;;;;;;;3.93;1.23;;;13.30;99.90;;;;;;5030342;28;20204;-56
2021/10/07 04:00:07;;;;;;;2.10;1.30;;;13.30;99.90;;;;;;5036610;28;20418;-52
2021/10/07 04:02:33;;;;;;;1.43;1.33;;;13.20;99.90;;;;;;5036692;28;20164;-54
2021/10/07 04:04:59;;;;;;;5.10;1.60;;;13.20;99.90;;;;;;5036334;28;20449;-56
2021/10/07 04:07:24;;;;;;;1.73;1.10;;;13.20;99.90;;;;;;5036702;28;20258;-55
2021/10/07 04:09:50;;;;;;;2.00;1.60;;;13.10;99.90;;;;;;5038412;28;20218;-53
2021/10/07 04:12:15;;;;;;;2.10;1.37;;;13.20;99.90;;;;;;5038955;28;20159;-53
2021/10/07 04:14:41;;;;;;;1.40;1.30;;;13.10;99.90;;;;;;5038390;28;20174;-54
2021/10/07 04:17:06;;;;;;;2.20;1.53;;;13.10;99.90;;;;;;5037563;28;20203;-57
2021/10/07 04:19:32;;;;;;;2.23;1.50;;;13.20;99.90;;;;;;5036019;28;20171;-53
2021/10/07 04:21:58;;;;;;;2.33;1.17;;;13.20;99.90;;;;;;5036991;28;20261;-57
2021/10/07 04:24:23;;;;;;;1.37;1.27;;;13.20;99.90;;;;;;5037818;28;20531;-56
2021/10/07 04:26:49;;;;;;;3.87;1.70;;;13.20;99.90;;;;;;5030344;28;20317;-57
2021/10/07 04:29:14;;;;;;;1.90;1.47;;;13.20;99.90;;;;;;5016823;28;20177;-57
2021/10/07 04:31:40;;;;;;;1.87;1.30;;;13.20;99.90;;;;;;5016906;28;20168;-58
2021/10/07 04:34:07;;;;;;;1.70;1.40;;;13.20;99.90;;;;;;5016478;28;20178;-56
2021/10/07 04:36:33;;;;;;;3.47;1.70;;;13.10;99.90;;;;;;5031837;28;20635;-53
2021/10/07 04:38:59;;;;;;;1.63;1.53;;;13.00;99.90;;;;;;5035041;28;20403;-57
2021/10/07 04:41:24;;;;;;;2.13;1.63;;;13.10;99.90;;;;;;5035196;28;20834;-57
2021/10/07 04:43:50;;;;;;;1.47;1.37;;;13.10;99.90;;;;;;5035515;28;20221;-56
2021/10/07 04:46:18;;;;;;;1.53;1.20;;;13.00;99.90;;;;;;5030855;28;20204;-55
2021/10/07 04:48:44;;;;;;;2.20;1.73;;;13.00;99.90;;;;;;5024846;28;20171;-56
2021/10/07 04:51:10;;;;;;;1.47;1.37;;;12.90;99.90;;;;;;5025975;28;20911;-57
2021/10/07 04:53:36;;;;;;;2.30;1.53;;;12.90;99.90;;;;;;5034731;28;20508;-58
2021/10/07 04:56:02;;;;;;;3.10;1.63;;;12.90;99.90;;;;;;5034682;28;20191;-57
2021/10/07 04:58:27;;;;;;;2.97;1.40;;;13.00;99.90;;;;;;5035308;28;20185;-58
2021/10/07 05:00:54;;;;;;;2.23;1.73;;;13.10;99.90;;;;;;5035076;28;20883;-54
2021/10/07 05:03:20;;;;;;;1.53;1.43;;;13.10;99.90;;;;;;5034797;28;20163;-57
2021/10/07 05:05:45;;;;;;;2.27;1.63;;;13.10;99.90;;;;;;5033703;28;20801;-57
2021/10/07 05:08:11;;;;;;;2.17;1.33;;;13.10;99.90;;;;;;5034317;28;20247;-58
2021/10/07 05:10:38;;;;;;;2.57;1.70;;;13.00;99.90;;;;;;5034490;28;20167;-56
2021/10/07 05:13:04;;;;;;;2.90;1.60;;;13.00;99.90;;;;;;5034583;28;20225;-56
2021/10/07 05:15:29;;;;;;;2.37;1.80;;;12.90;99.90;;;;;;5034195;28;20436;-56
2021/10/07 05:17:55;;;;;;;1.40;1.20;;;12.90;99.90;;;;;;5034150;28;20492;-58
2021/10/07 05:20:21;;;;;;;1.70;1.17;;;12.80;99.90;;;;;;5034748;28;20203;-57
2021/10/07 05:22:46;;;;;;;2.50;1.70;;;12.90;99.90;;;;;;5034049;28;20187;-55
2021/10/07 05:25:12;;;;;;;3.87;1.87;;;12.90;99.90;;;;;;5033714;28;20282;-57
2021/10/07 05:27:38;;;;;;;5.77;2.00;;;12.90;99.90;;;;;;5033855;28;20186;-57
2021/10/07 05:30:06;;;;;;;1.47;1.37;;;13.00;99.90;;;;;;5034226;28;20518;-57
2021/10/07 05:32:32;;;;;;;2.50;1.53;;;13.10;99.90;;;;;;5031455;28;20429;-58
2021/10/07 05:34:59;;;;;;;3.20;1.97;;;13.10;99.90;;;;;;5020151;28;20936;-55
2021/10/07 05:37:25;;;;;;;4.53;2.30;;;13.10;99.90;;;;;;5025308;28;20254;-56
2021/10/07 05:39:51;;;;;;;1.67;1.40;;;13.20;99.90;;;;;;5013945;28;20909;-58
2021/10/07 05:42:16;;;;;;;2.77;1.80;;;13.20;99.90;;;;;;5013881;28;20411;-56
2021/10/07 05:44:42;;;;;;;3.80;2.63;;;13.30;99.90;;;;;;5014128;28;20168;-58
2021/10/07 05:47:08;;;;;;;5.00;2.37;;;13.20;99.90;;;;;;5014194;28;20183;-56
2021/10/07 05:49:33;;;;;;;3.00;1.80;;;13.10;99.90;;;;;;5013976;28;20179;-58
2021/10/07 05:51:59;;;;;;;2.17;1.77;;;13.10;99.90;;;;;;5013891;28;20176;-58
2021/10/07 05:54:25;;;;;;;4.93;1.67;;;13.10;99.90;;;;;;5013693;28;20222;-58
2021/10/07 05:56:50;;;;;;;2.90;1.70;;;13.10;99.90;;;;;;5013670;28;20195;-57
2021/10/07 05:59:16;;;;;;;2.77;2.57;;;13.10;99.90;;;;;;5014338;28;20169;-56
2021/10/07 06:01:42;;;;;;;3.90;3.43;;;13.00;99.90;;;;;;5013760;28;20255;-58
2021/10/07 06:04:08;;;;;;;2.50;2.00;;;13.10;99.90;;;;;;5013637;28;20168;-58
2021/10/07 06:06:33;;;;;;;2.53;1.60;;;13.10;99.90;;;;;;5024296;28;20264;-57
2021/10/07 06:08:59;;;;;;;2.37;1.63;;;13.20;99.90;;;;;;5032987;28;20803;-57
2021/10/07 06:11:25;;;;;;;3.60;1.70;;;13.30;99.90;;;;;;5033396;28;20229;-58
2021/10/07 06:13:51;;;;;;;2.20;2.00;;;13.40;99.90;;;;;;5033865;28;20200;-58
2021/10/07 06:16:19;;;;;;;4.90;1.80;;;13.40;99.90;;;;;;5032598;28;20841;-56
2021/10/07 06:18:46;;;;;;;4.13;2.17;;;13.40;99.90;;;;;;5033354;28;20719;-58
2021/10/07 06:21:11;;;;;;;2.90;1.73;;;13.50;99.90;;;;;;5032860;28;20410;-54
2021/10/07 06:23:41;;;;;;;1.70;1.60;;;13.50;99.90;;;;;;5033077;28;20430;-56
2021/10/07 06:26:07;;;;;;;3.60;1.83;;;13.60;99.90;;;;;;5032809;28;20280;-58
2021/10/07 06:28:33;;;;;;;2.57;1.97;;;13.60;99.90;;;;;;5033100;28;20460;-57
2021/10/07 06:30:58;;;;;;;3.73;2.20;;;13.60;99.90;;;;;;5032985;28;20392;-57
2021/10/07 06:33:24;;;;;;;3.50;2.00;;;13.60;99.90;;;;;;5032777;28;20184;-54
2021/10/07 06:35:52;;;;;;;2.93;1.97;;;13.50;99.90;;;;;;5032729;28;20266;-57
2021/10/07 06:38:17;;;;;;;2.00;1.80;;;13.50;99.90;;;;;;5032902;28;20692;-58
2021/10/07 06:40:43;;;;;;;1.87;1.77;;;13.60;99.90;;;;;;5032812;28;20415;-58
2021/10/07 06:43:09;;;;;;;3.13;2.60;;;13.70;99.90;;;;;;5033163;28;20179;-56
2021/10/07 06:45:34;;;;;;;3.03;1.70;;;13.70;99.90;;;;;;5032777;28;20208;-55
2021/10/07 06:48:00;;;;;;;2.07;1.87;;;13.80;99.90;;;;;;5032918;28;20165;-56
2021/10/07 06:50:25;;;;;;;2.73;1.80;;;13.70;99.90;;;;;;5033296;28;20164;-57
2021/10/07 06:52:51;;;;;;;3.20;2.13;;;13.70;99.90;;;;;;5030777;28;20200;-57
2021/10/07 06:55:17;;;;;;;3.33;2.77;;;13.80;99.90;;;;;;5013672;28;20566;-58
2021/10/07 06:57:43;;;;;;;2.70;2.50;;;13.80;99.90;;;;;;5002620;28;20172;-53
2021/10/07 07:00:10;;;;;;;4.57;3.23;;;13.80;99.90;;;;;;5012635;28;20181;-57
2021/10/07 07:02:37;;;;;;;2.33;2.03;;;13.90;99.90;;;;;;5013166;28;20166;-55
2021/10/07 07:05:05;;;;;;;4.63;4.23;;;13.80;99.90;;;;;;5013000;28;20944;-53
2021/10/07 07:07:31;;;;;;;6.00;4.30;;;13.80;99.90;;;;;;5031398;28;20943;-58
2021/10/07 07:09:57;;;;;;;5.83;4.03;;;13.70;99.90;;;;;;5032366;28;20411;-57
2021/10/07 07:12:23;;;;;;;4.60;4.20;;;13.70;99.90;;;;;;5032999;28;20831;-55
2021/10/07 07:14:48;;;;;;;4.93;4.53;;;13.80;99.90;;;;;;5032680;28;20173;-54
2021/10/07 07:17:15;;;;;;;6.13;4.40;;;13.70;99.90;;;;;;5032583;28;20257;-58
2021/10/07 07:19:41;;;;;;;5.20;3.97;;;13.50;99.90;;;;;;5032801;28;20187;-56
2021/10/07 07:22:07;;;;;;;6.80;6.20;;;13.50;99.90;;;;;;5032321;28;20435;-58
2021/10/07 07:24:33;;;;;;;7.00;4.67;;;13.60;99.90;;;;;;5032238;28;20168;-58
2021/10/07 07:26:59;;;;;;;6.07;4.80;;;13.60;99.90;;;;;;5032491;28;20458;-57
2021/10/07 07:29:24;;;;;;;6.53;5.83;;;13.50;99.90;;;;;;5035922;28;20205;-56
2021/10/07 07:31:50;;;;;;;7.50;6.33;;;13.60;99.90;;;;;;5036317;28;20306;-58
2021/10/07 07:34:16;;;;;;;7.50;6.80;;;13.60;99.90;;;;;;5036075;28;20209;-59
2021/10/07 07:36:42;;;;;;;11.73;5.67;;;13.60;99.90;;;;;;5035692;28;20223;-58
2021/10/07 07:39:07;;;;;;;6.47;5.83;;;13.70;99.90;;;;;;5035901;28;20198;-56
2021/10/07 07:41:34;;;;;;;8.57;6.67;;;13.80;99.90;;;;;;5036354;28;20534;-57
2021/10/07 07:44:00;;;;;;;5.93;5.43;;;13.90;99.90;;;;;;5036322;28;20167;-55
2021/10/07 07:46:25;;;;;;;6.70;5.97;;;14.00;99.90;;;;;;5035748;28;20451;-56
2021/10/07 07:48:51;;;;;;;8.10;7.10;;;14.00;99.90;;;;;;5034659;28;20178;-55
2021/10/07 07:51:18;;;;;;;8.47;6.97;;;14.00;99.90;;;;;;5035722;28;20631;-56
2021/10/07 07:53:44;;;;;;;9.43;7.90;;;14.20;99.90;;;;;;5035733;28;20159;-55
2021/10/07 07:56:09;;;;;;;8.20;7.40;;;14.30;99.90;;;;;;5035894;28;20511;-55
2021/10/07 07:58:35;;;;;;;7.87;6.40;;;13.90;99.90;;;;;;5036189;28;20499;-55
2021/10/07 08:01:01;;;;;;;7.33;6.60;;;13.80;99.90;;;;;;5035721;28;20166;-56
2021/10/07 08:03:27;;;;;;;8.07;7.17;;;13.70;99.90;;;;;;5035861;28;20173;-57
2021/10/07 08:05:53;;;;;;;11.43;7.80;;;13.50;99.90;;;;;;5035314;28;20620;-54
2021/10/07 08:08:19;;;;;;;8.17;7.47;;;13.50;99.90;;;;;;5035313;28;20536;-57
2021/10/07 08:10:44;;;;;;;6.83;6.17;;;13.60;99.90;;;;;;5035304;28;20919;-57
2021/10/07 08:13:10;;;;;;;6.70;6.20;;;13.70;99.90;;;;;;5035700;28;20623;-56
2021/10/07 08:15:36;;;;;;;8.90;7.97;;;13.70;99.90;;;;;;5035447;28;20212;-56
2021/10/07 08:18:02;;;;;;;13.53;9.10;;;13.80;99.90;;;;;;5035269;28;20302;-57
2021/10/07 08:20:29;;;;;;;10.80;7.80;;;13.80;99.90;;;;;;5035297;28;20217;-58
2021/10/07 08:22:55;;;;;;;9.07;8.17;;;13.80;99.90;;;;;;5034953;28;20415;-56
2021/10/07 08:25:21;;;;;;;9.43;7.67;;;13.80;99.90;;;;;;5034864;28;20900;-57
2021/10/07 08:27:47;;;;;;;8.20;7.00;;;13.90;99.90;;;;;;5030646;28;20219;-56
2021/10/07 08:30:14;;;;;;;9.80;8.77;;;14.10;99.90;;;;;;5019672;28;20418;-54
2021/10/07 08:32:40;;;;;;;8.57;7.77;;;14.20;99.90;;;;;;5015814;28;20496;-57
2021/10/07 08:35:07;;;;;;;9.43;8.43;;;14.20;99.90;;;;;;5015337;28;20450;-57
2021/10/07 08:37:33;;;;;;;9.90;7.60;;;14.50;99.90;;;;;;5078720;22;20594;-56
2021/10/07 08:40:00;;;;;;;13.93;7.27;;;14.70;99.90;;;;;;5053621;28;20400;-57
2021/10/07 08:42:26;;;;;;;7.60;6.87;;;15.00;99.90;;;;;;5054833;28;20504;-58
2021/10/07 08:44:52;;;;;;;10.73;7.70;;;15.00;99.90;;;;;;5054387;28;20426;-56
2021/10/07 08:47:19;;;;;;;8.63;7.73;;;15.30;99.90;;;;;;5053385;28;20432;-56
2021/10/07 08:49:46;;;;;;;9.10;8.20;;;15.20;99.90;;;;;;5054174;28;20545;-58
2021/10/07 08:52:12;;;;;;;8.53;7.77;;;15.10;99.90;;;;;;5053909;28;20887;-55
2021/10/07 08:54:38;;;;;;;8.67;7.80;;;15.20;99.90;;;;;;5054121;28;20809;-56
2021/10/07 08:57:05;;;;;;;8.23;7.30;;;15.40;99.90;;;;;;5053907;28;20435;-56
2021/10/07 08:59:32;;;;;;;8.07;7.27;;;15.40;99.90;;;;;;5039418;28;20481;-56
2021/10/07 09:02:00;;;;;;;7.57;6.83;;;15.50;99.90;;;;;;5014300;28;20931;-57
2021/10/07 09:04:37;;;;;;;9.27;8.27;;;15.70;99.90;;;;;;5014260;28;20498;-57
2021/10/07 09:07:08;;;;;;;10.43;8.80;;;16.20;99.90;;;;;;5034067;28;20461;-58
2021/10/07 09:09:36;;;;;;;9.00;7.53;;;16.10;99.90;;;;;;5053747;28;20401;-58
2021/10/07 09:12:08;;;;;;;8.20;7.50;;;16.10;99.90;;;;;;5053760;28;20488;-56
2021/10/07 09:14:36;;;;;;;9.90;7.53;;;15.70;99.90;;;;;;5054648;28;20527;-57
2021/10/07 09:17:04;;;;;;;7.00;6.40;;;15.60;99.90;;;;;;5053916;28;20433;-57
2021/10/07 09:19:40;;;;;;;8.80;7.33;;;15.70;99.90;;;;;;5053693;28;20430;-58
2021/10/07 09:22:21;;;;;;;8.50;7.80;;;16.00;99.90;;;;;;5053739;28;20746;-57
2021/10/07 09:24:51;;;;;;;9.13;8.23;;;16.00;99.90;;;;;;5053199;28;20827;-57
2021/10/07 09:27:20;;;;;;;8.93;8.03;;;15.80;99.90;;;;;;5054111;28;20858;-58
2021/10/07 09:29:51;;;;;;;11.30;10.20;;;15.60;99.90;;;;;;5053726;28;20475;-57
2021/10/07 09:32:39;;;;;;;9.80;8.50;;;15.30;99.90;;;;;;5053960;28;20401;-56
2021/10/07 09:35:08;;;;;;;10.03;9.13;;;15.10;99.90;;;;;;5053983;28;20723;-56
2021/10/07 09:37:42;;;;;;;9.07;8.27;;;14.80;99.90;;;;;;5053159;28;20994;-54
2021/10/07 09:40:12;;;;;;;10.17;9.00;;;14.70;99.90;;;;;;5053650;28;20422;-56
2021/10/07 09:42:47;;;;;;;9.40;8.60;;;14.90;99.90;;;;;;5052849;28;20459;-51
2021/10/07 09:45:16;;;;;;;10.67;9.83;;;14.70;99.90;;;;;;5054363;28;20516;-57
2021/10/07 09:47:50;;;;;;;11.50;10.30;;;14.70;99.90;;;;;;5053872;28;20457;-57
2021/10/07 09:50:21;;;;;;;10.77;9.77;;;14.60;99.90;;;;;;5053728;28;20411;-57
2021/10/07 09:52:56;;;;;;;13.93;9.43;;;14.70;99.90;;;;;;5052940;28;20391;-57
2021/10/07 09:55:23;;;;;;;10.87;9.80;;;14.90;99.90;;;;;;5053632;28;20898;-56
2021/10/07 09:57:55;;;;;;;9.60;8.70;;;15.20;99.90;;;;;;5053459;28;20431;-57
2021/10/07 10:00:22;;;;;;;11.10;9.57;;;15.20;99.90;;;;;;5053560;28;20385;-58
2021/10/07 10:02:48;;;;;;;10.53;9.50;;;15.50;99.90;;;;;;5053731;28;20790;-55
2021/10/07 10:05:14;;;;;;;12.33;9.77;;;15.60;99.90;;;;;;5053755;28;20439;-57
2021/10/07 10:07:42;;;;;;;9.83;8.83;;;15.50;99.90;;;;;;5052929;28;20970;-56
2021/10/07 10:10:08;;;;;;;11.00;9.93;;;15.40;99.90;;;;;;5053078;28;20410;-57
2021/10/07 10:12:34;;;;;;;11.70;9.77;;;15.30;99.90;;;;;;5053075;28;20467;-58
2021/10/07 10:15:01;;;;;;;8.70;7.87;;;15.50;99.90;;;;;;5053875;28;20409;-57
2021/10/07 10:17:27;;;;;;;10.60;9.70;;;15.70;99.90;;;;;;5052895;28;20323;-58
2021/10/07 10:19:53;;;;;;;9.90;9.00;;;15.90;99.90;;;;;;5052989;28;20494;-56
2021/10/07 10:22:24;;;;;;;10.67;9.57;;;16.10;99.90;;;;;;5052731;28;20414;-56
2021/10/07 10:24:51;;;;;;;7.97;7.17;;;16.40;99.90;;;;;;5052957;28;20402;-58
2021/10/07 10:27:17;;;;;;;8.47;7.67;;;16.60;99.90;;;;;;5052686;28;20423;-58
2021/10/07 10:29:42;;;;;;;9.10;8.13;;;16.50;99.90;;;;;;5053280;28;20487;-55
2021/10/07 10:32:12;;;;;;;10.07;9.07;;;16.70;99.90;;;;;;5053123;28;20423;-58
2021/10/07 10:34:41;;;;;;;7.53;6.83;;;16.70;99.90;;;;;;5052950;28;20256;-55
2021/10/07 10:37:08;;;;;;;10.03;8.17;;;16.60;99.90;;;;;;5052402;28;20457;-58
2021/10/07 10:39:39;;;;;;;7.30;6.60;;;16.50;99.90;;;;;;5052817;28;20817;-58
2021/10/07 10:42:06;;;;;;;7.33;6.73;;;16.30;99.90;;;;;;5052798;28;20385;-56
2021/10/07 10:44:55;;;;;;;6.63;5.53;;;16.10;99.90;;;;;;5052798;28;20438;-56
2021/10/07 10:47:22;;;;;;;7.33;6.63;;;16.10;99.90;;;;;;5052814;28;20434;-58
2021/10/07 10:49:51;;;;;;;7.67;6.97;;;16.10;99.90;;;;;;5053104;28;20740;-57
2021/10/07 10:52:19;;;;;;;8.17;7.37;;;16.10;99.90;;;;;;5052802;28;20420;-54
2021/10/07 10:54:50;;;;;;;6.50;5.90;;;16.20;99.90;;;;;;5052763;28;20397;-54
2021/10/07 10:57:46;;;;;;;9.17;7.10;;;16.60;99.90;;;;;;5068079;28;20439;-56
2021/10/07 11:00:24;;;;;;;7.87;7.07;;;16.80;99.90;;;;;;5053020;28;20439;-56
2021/10/07 11:02:53;;;;;;;7.70;7.00;;;16.90;99.90;;;;;;5053749;28;20920;-52
2021/10/07 11:05:22;;;;;;;7.93;7.10;;;17.10;99.90;;;;;;5027827;28;20445;-56
2021/10/07 11:08:13;;;;;;;8.17;6.73;;;17.50;99.90;;;;;;5021079;28;21042;-55
2021/10/07 11:10:44;;;;;;;8.00;6.83;;;17.60;99.90;;;;;;5016676;28;20392;-55
2021/10/07 11:13:14;;;;;;;5.60;5.10;;;17.60;99.90;;;;;;5016732;28;20407;-56
2021/10/07 11:15:40;;;;;;;6.63;6.10;;;17.80;99.90;;;;;;5016987;28;20410;-58
2021/10/07 11:18:06;;;;;;;8.13;6.93;;;18.00;99.90;;;;;;5016729;28;20484;-58
2021/10/07 11:20:33;;;;;;;9.17;6.60;;;18.00;99.90;;;;;;5030027;28;20179;-58
2021/10/07 11:23:25;;;;;;;7.17;6.20;;;17.60;99.90;;;;;;5036148;28;20183;-56
2021/10/07 11:25:53;;;;;;;8.63;6.77;;;17.30;99.90;;;;;;5035424;28;20515;-55
2021/10/07 11:28:30;;;;;;;8.90;7.30;;;17.20;99.90;;;;;;5035923;28;20402;-57
2021/10/07 11:31:16;;;;;;;6.33;5.73;;;17.40;99.90;;;;;;5035732;28;20405;-57
2021/10/07 11:33:45;;;;;;;7.33;6.63;;;17.10;99.90;;;;;;5035973;28;20389;-56
2021/10/07 11:36:14;;;;;;;8.40;7.30;;;16.60;99.90;;;;;;5025704;28;20530;-57
2021/10/07 11:38:42;;;;;;;6.83;6.20;;;16.50;99.90;;;;;;5035974;28;20402;-57
2021/10/07 11:41:09;;;;;;;7.27;5.53;;;16.70;99.90;;;;;;5035912;28;20428;-55
2021/10/07 11:43:37;;;;;;;7.10;6.40;;;17.00;99.90;;;;;;5036017;28;20492;-53
2021/10/07 11:46:11;;;;;;;5.87;5.27;;;16.70;99.90;;;;;;5034586;28;20449;-55
2021/10/07 11:48:36;;;;;;;7.67;5.90;;;16.60;99.90;;;;;;5035439;28;20401;-54
2021/10/07 11:51:05;;;;;;;6.47;5.90;;;16.60;99.90;;;;;;5035797;28;20405;-54
2021/10/07 11:53:41;;;;;;;7.90;6.20;;;16.70;99.90;;;;;;5035618;28;20634;-56
2021/10/07 11:56:28;;;;;;;7.73;6.20;;;17.00;99.90;;;;;;5035558;28;20859;-56
2021/10/07 11:58:57;;;;;;;7.00;6.33;;;16.80;99.90;;;;;;5035782;28;20378;-56
2021/10/07 12:01:27;;;;;;;6.73;6.00;;;16.80;99.90;;;;;;5035544;28;20535;-56
2021/10/07 12:03:55;;;;;;;6.03;5.57;;;17.20;99.90;;;;;;5035635;28;20390;-54
2021/10/07 12:06:21;;;;;;;6.70;5.40;;;17.20;99.90;;;;;;5039893;28;20541;-54
2021/10/07 12:08:48;;;;;;;7.67;6.10;;;17.20;99.90;;;;;;5055127;28;20465;-57
2021/10/07 12:11:25;;;;;;;5.80;5.37;;;17.20;99.90;;;;;;5055169;28;20170;-56
2021/10/07 12:13:53;;;;;;;5.07;4.67;;;17.30;99.90;;;;;;5054885;28;20435;-55
2021/10/07 12:16:27;;;;;;;5.10;4.70;;;17.00;99.90;;;;;;5055084;28;20543;-56
2021/10/07 12:18:59;;;;;;;6.43;5.47;;;16.90;99.90;;;;;;5055535;28;20403;-56
2021/10/07 12:21:30;;;;;;;6.63;6.00;;;17.20;99.90;;;;;;5055264;28;20496;-57
2021/10/07 12:24:02;;;;;;;6.00;5.40;;;17.80;99.90;;;;;;5055442;28;20769;-57
2021/10/07 12:26:38;;;;;;;4.90;4.50;;;17.70;99.90;;;;;;5054957;28;20461;-54
2021/10/07 12:29:28;;;;;;;6.23;4.27;;;17.10;99.90;;;;;;5055282;28;20476;-57
2021/10/07 12:32:04;;;;;;;5.60;5.10;;;17.10;99.90;;;;;;5055382;28;20392;-56
2021/10/07 12:34:39;;;;;;;4.07;3.77;;;17.10;99.90;;;;;;5054888;28;20393;-56
2021/10/07 12:37:08;;;;;;;4.47;3.10;;;17.00;99.90;;;;;;5054377;28;20560;-53
2021/10/07 12:39:42;;;;;;;4.17;3.77;;;17.30;99.90;;;;;;5033476;28;20427;-53
2021/10/07 12:42:26;;;;;;;3.80;3.37;;;17.80;99.90;;;;;;5026017;28;20413;-56
2021/10/07 12:44:59;;;;;;;4.00;3.70;;;18.30;99.90;;;;;;5035187;28;20386;-55
2021/10/07 12:47:28;;;;;;;5.37;3.53;;;18.10;99.90;;;;;;5034620;28;20426;-57
2021/10/07 12:49:56;;;;;;;5.67;3.43;;;18.50;99.90;;;;;;5034968;28;20437;-54
2021/10/07 12:52:26;;;;;;;5.07;4.67;;;18.70;99.90;;;;;;5034451;28;20413;-57